SU2101 / RA-89041 7700 Squawk Report (26th of April, 2019)

Aircraft SU95 Reg No. RA-89041 Age 5 years old
Model SSJ-100 Jet engines 2 First flight 15-06-14
Registered 27-11-14 Rollout 05-14 Delivered 27-11-14
Construction No. 95063 Line No. 063 Series 95B
ADSHEX 155BD1 Airline name Aeroflot Russian Airlines Owner N/A
Airfield based Moscow-Sheremetyevo~Moscow~RA First tracked 2017-07-13 15:05:00

Flight history for RA-89041

Route Flight No Date Playback
Chertovitskoye (VOZ) - Sheremetyevo (SVO) SU1023 2019-06-06 22:40:00
Sheremetyevo (SVO) - Chertovitskoye (VOZ) SU1022 2019-06-06 15:07:00
Kazan (KZN) - Sheremetyevo (SVO) SU1271 2019-06-06 13:00:00
Sheremetyevo (SVO) - Kazan (KZN) SU1270 2019-06-06 12:57:00
Kazan (KZN) - Sheremetyevo (SVO) SU1271 2019-06-06 09:43:00
Sheremetyevo (SVO) - Kazan (KZN) SU1270 2019-06-06 06:10:00
Syktyvkar (SCW) - Sheremetyevo (SVO) SU1397 2019-06-06 03:42:00
Sheremetyevo (SVO) - Syktyvkar (SCW) SU1396 2019-06-05 20:49:00
Talagi (ARH) - Sheremetyevo (SVO) SU1331 2019-06-05 19:47:00
Sheremetyevo (SVO) - Talagi (ARH) SU1330 2019-06-05 15:27:00
Ufa (UFA) - Sheremetyevo (SVO) SU1231 2019-06-05 13:52:00
Saransk Airport (SKX) - Sheremetyevo (SVO) SU1467 2019-06-05 09:28:00
Sheremetyevo (SVO) - Ufa (UFA) SU1230 2019-06-05 09:01:00
Saransk Airport (SKX) - Sheremetyevo (SVO) SU1467 2019-06-05 06:42:00
Sheremetyevo (SVO) - Saransk Airport (SKX) SU1466 2019-06-05 02:02:00
Syktyvkar (SCW) - Sheremetyevo (SVO) SU1391 2019-06-04 18:34:00
Aktyubinsk (AKX) - Sheremetyevo (SVO) SU1949 2019-06-04 09:31:00
Sheremetyevo (SVO) - Syktyvkar (SCW) SU1390 2019-06-04 08:57:00
Aktyubinsk (AKX) - Sheremetyevo (SVO) SU1949 2019-06-04 05:52:00
Pashkovskiy (KRR) - Sheremetyevo (SVO) SU1101 2019-06-03 21:32:00
Time Lat Lon Altitude Heading Speed Vertical Rate
2019-04-26 12:27:58 GMT 56.941864 23.974142 200 186 139 -768
2019-04-26 12:27:53 GMT 56.944336 23.974657 250 186 139 -768
2019-04-26 12:27:46 GMT 56.949913 23.975622 325 186 140 -896
2019-04-26 12:27:33 GMT 56.958061 23.977041 450 186 158 -896
2019-04-26 12:27:21 GMT 56.966671 23.978371 650 185 147 -640
2019-04-26 12:27:11 GMT 56.972855 23.979378 775 186 149 -832
2019-04-26 12:27:04 GMT 56.977844 23.980230 850 186 154 -640
2019-04-26 12:26:53 GMT 56.985107 23.981382 1,000 185 162 -960
2019-04-26 12:26:29 GMT 57.003681 23.984484 1,475 186 163 -768
2019-04-26 12:26:20 GMT 57.011215 23.985729 1,475 186 163 -192
2019-04-26 12:26:13 GMT 57.015564 23.986416 1,500 186 163 -128
2019-04-26 12:26:00 GMT 57.025330 23.987940 1,500 188 166 192
2019-04-26 12:25:53 GMT 57.030636 23.988825 1,500 185 162 0
2019-04-26 12:25:42 GMT 57.038956 23.990107 1,500 186 165 -64
2019-04-26 12:25:33 GMT 57.046600 23.991823 1,500 193 167 -128
2019-04-26 12:25:19 GMT 57.056076 23.999977 1,525 218 167 0
2019-04-26 12:25:04 GMT 57.064571 24.012392 1,525 223 174 -192
2019-04-26 12:24:59 GMT 57.067520 24.017916 1,525 247 183 -128
2019-04-26 12:24:50 GMT 57.071415 24.031883 1,525 263 188 -576
2019-04-26 12:24:30 GMT 57.070667 24.062983 1,750 278 213 -704
2019-04-26 12:24:21 GMT 57.069599 24.078045 1,900 278 203 -960
2019-04-26 12:24:18 GMT 57.069134 24.084158 1,975 278 203 -960
2019-04-26 12:24:08 GMT 57.067875 24.101612 2,125 278 208 -960
2019-04-26 12:23:54 GMT 57.065968 24.127836 2,325 278 211 -1024
2019-04-26 12:23:49 GMT 57.065411 24.135368 2,450 278 215 -448
2019-04-26 12:23:36 GMT 57.063858 24.157305 2,500 278 222 -64
2019-04-26 12:23:24 GMT 57.062290 24.179491 2,525 278 222 -64
2019-04-26 12:23:17 GMT 57.061314 24.193666 2,525 278 226 128
2019-04-26 12:23:02 GMT 57.059265 24.221575 2,475 278 241 0
2019-04-26 12:22:48 GMT 57.057217 24.251080 2,525 278 248 -64
2019-04-26 12:22:45 GMT 57.056717 24.259100 2,500 277 256 0
2019-04-26 12:22:34 GMT 57.055260 24.283152 2,500 278 260 320
2019-04-26 12:22:25 GMT 57.053772 24.303087 2,500 281 265 -192
2019-04-26 12:22:15 GMT 57.051395 24.324883 2,500 283 268 128
2019-04-26 12:22:05 GMT 57.048706 24.347591 2,500 283 267 -192
2019-04-26 12:21:51 GMT 57.044880 24.378927 2,600 283 267 -640
2019-04-26 12:21:44 GMT 57.043076 24.395142 2,725 282 265 -512
2019-04-26 12:21:32 GMT 57.040375 24.419947 2,775 282 265 -512
2019-04-26 12:21:23 GMT 57.038132 24.439516 2,850 283 266 -384
2019-04-26 12:21:11 GMT 57.034744 24.464493 2,975 287 268 -512
2019-04-26 12:21:02 GMT 57.030727 24.485601 3,075 292 267 -448
2019-04-26 12:20:52 GMT 57.025841 24.507132 3,200 293 268 -704
2019-04-26 12:20:42 GMT 57.020599 24.530067 3,300 293 267 -704
2019-04-26 12:20:39 GMT 57.020096 24.532385 3,300 293 268 -640
2019-04-26 12:20:31 GMT 57.015923 24.550545 3,400 293 269 -640
2019-04-26 12:20:17 GMT 57.009476 24.578905 3,525 293 267 -448
2019-04-26 12:20:10 GMT 57.006054 24.594490 3,625 293 268 -832
2019-04-26 12:19:58 GMT 57.000050 24.621336 3,750 293 269 -704
2019-04-26 12:19:47 GMT 56.994644 24.644480 3,850 294 267 -320
2019-04-26 12:19:39 GMT 56.991074 24.659758 3,925 293 267 -512
2019-04-26 12:19:27 GMT 56.986038 24.684242 3,975 286 271 -576
2019-04-26 12:19:16 GMT 56.982559 24.708681 4,075 283 272 -896
2019-04-26 12:19:07 GMT 56.978031 24.745995 4,300 283 271 -1024
2019-04-26 12:18:54 GMT 56.976425 24.759665 4,400 283 270 -640
2019-04-26 12:18:49 GMT 56.975285 24.768944 4,450 283 270 -704
2019-04-26 12:18:44 GMT 56.973980 24.780283 4,500 283 269 -1088
2019-04-26 12:18:39 GMT 56.972580 24.791937 4,600 283 268 -832
2019-04-26 12:18:29 GMT 56.969742 24.815454 4,725 283 267 -704
2019-04-26 12:18:17 GMT 56.966904 24.838715 4,850 283 270 -768
2019-04-26 12:18:08 GMT 56.964066 24.862148 5,000 283 273 -896
2019-04-26 12:17:57 GMT 56.961227 24.885750 5,150 283 274 -704
2019-04-26 12:17:46 GMT 56.958061 24.912561 5,275 283 275 -704
2019-04-26 12:17:36 GMT 56.955593 24.932940 5,450 283 277 -768
2019-04-26 12:17:25 GMT 56.952667 24.957762 5,575 282 274 -896
2019-04-26 12:17:15 GMT 56.950012 24.979992 5,700 283 274 -832
2019-04-26 12:17:05 GMT 56.946934 25.003466 5,825 286 273 -832
2019-04-26 12:16:55 GMT 56.942917 25.027542 5,975 289 273 -832
2019-04-26 12:16:44 GMT 56.938843 25.050116 6,100 289 274 -768
2019-04-26 12:16:33 GMT 56.934738 25.072840 6,250 289 277 -832
2019-04-26 12:16:23 GMT 56.930546 25.096230 6,400 289 277 -832
2019-04-26 12:16:13 GMT 56.926437 25.118780 6,525 289 277 -896
2019-04-26 12:16:03 GMT 56.921982 25.143452 6,675 289 278 -768
2019-04-26 12:15:52 GMT 56.917923 25.165730 6,825 289 277 -832
2019-04-26 12:15:42 GMT 56.913879 25.188107 6,950 289 278 -768
2019-04-26 12:15:31 GMT 56.909554 25.211761 7,100 289 280 -768
2019-04-26 12:15:21 GMT 56.905315 25.235153 7,250 289 282 -1344
2019-04-26 12:15:11 GMT 56.900940 25.259199 7,500 289 280 -1600
2019-04-26 12:15:00 GMT 56.896820 25.281773 7,775 289 280 -1792
2019-04-26 12:14:50 GMT 56.892326 25.306387 8,075 289 280 -1472
2019-04-26 12:14:35 GMT 56.886475 25.338507 8,300 289 281 -1344
2019-04-26 12:14:25 GMT 56.882645 25.359547 8,575 289 284 -1280
2019-04-26 12:14:18 GMT 56.878922 25.379747 8,775 289 285 -1536
2019-04-26 12:14:06 GMT 56.874527 25.403566 9,050 289 286 -1280
2019-04-26 12:13:56 GMT 56.869938 25.428654 9,325 289 286 -1536
2019-04-26 12:13:45 GMT 56.865692 25.451889 9,575 289 289 -1024
2019-04-26 12:13:33 GMT 56.860535 25.479509 9,775 289 289 -1088
2019-04-26 12:13:26 GMT 56.857368 25.496698 9,925 289 288 -768
We lost coverage of the aircraft here for a total of 23 minutes
2019-04-26 11:50:06 GMT 56.519760 26.800232 21,200 124 363 -5888
2019-04-26 11:50:01 GMT 56.524006 26.786900 21,975 118 366 -4480
2019-04-26 11:49:51 GMT 56.530151 26.758451 22,550 104 373 -2624
2019-04-26 11:49:44 GMT 56.532990 26.735146 22,875 101 377 -2688
2019-04-26 11:49:32 GMT 56.536835 26.700523 23,400 101 380 -3200
2019-04-26 11:49:23 GMT 56.540268 26.669893 23,900 101 383 -2880
2019-04-26 11:49:09 GMT 56.544983 26.627529 24,550 101 387 -2816
2019-04-26 11:49:01 GMT 56.547749 26.602707 24,925 101 390 -2880
2019-04-26 11:48:56 GMT 56.549927 26.582752 25,225 101 394 -3072
2019-04-26 11:48:51 GMT 56.551285 26.570520 25,400 101 394 -3008
2019-04-26 11:48:41 GMT 56.554871 26.537991 25,925 101 396 -3456
2019-04-26 11:48:30 GMT 56.558781 26.502542 26,575 101 397 -3584
2019-04-26 11:48:19 GMT 56.562878 26.465206 27,225 101 399 -3008
2019-04-26 11:48:11 GMT 56.567299 26.424866 27,800 101 402 -2432
2019-04-26 11:47:59 GMT 56.570187 26.398602 28,125 101 404 -3200
2019-04-26 11:47:48 GMT 56.574051 26.362944 28,700 101 404 -2624
2019-04-26 11:47:39 GMT 56.577209 26.333479 29,025 101 410 -1728
2019-04-26 11:47:27 GMT 56.581684 26.292000 29,375 100 414 -1664
2019-04-26 11:47:18 GMT 56.584991 26.261187 29,625 100 416 -1920
2019-04-26 11:47:08 GMT 56.588619 26.227198 29,975 101 418 -2240
2019-04-26 11:46:58 GMT 56.592224 26.193569 30,350 100 419 -1728
2019-04-26 11:46:48 GMT 56.596115 26.157118 30,600 100 422 -960
2019-04-26 11:46:37 GMT 56.599979 26.120970 30,750 100 424 -960
2019-04-26 11:46:27 GMT 56.603760 26.085491 30,925 100 425 -960
2019-04-26 11:46:15 GMT 56.608219 26.043621 31,100 100 427 -896
2019-04-26 11:46:06 GMT 56.611710 26.010399 31,250 100 428 -1280
2019-04-26 11:45:54 GMT 56.615982 25.969963 31,425 100 427 512
2019-04-26 11:45:45 GMT 56.619301 25.938278 31,250 100 426 1280
2019-04-26 11:45:35 GMT 56.623123 25.901985 31,050 100 424 1152
2019-04-26 11:45:24 GMT 56.627026 25.864828 30,850 100 420 1472
2019-04-26 11:45:14 GMT 56.630630 25.829973 30,600 100 419 1600
2019-04-26 11:45:03 GMT 56.634567 25.792208 30,300 100 417 1920
2019-04-26 11:44:53 GMT 56.638184 25.757275 29,975 100 417 1920
2019-04-26 11:44:42 GMT 56.642075 25.719681 29,550 100 416 1536
2019-04-26 11:44:32 GMT 56.645737 25.684490 29,400 100 412 1408
2019-04-26 11:44:24 GMT 56.648674 25.655558 29,175 100 409 1600
2019-04-26 11:44:21 GMT 56.649490 25.647755 29,125 100 409 1664
2019-04-26 11:44:11 GMT 56.653004 25.613207 28,825 100 407 1856
2019-04-26 11:44:00 GMT 56.656631 25.578060 28,175 100 405 1792
2019-04-26 11:43:52 GMT 56.659428 25.550388 27,750 100 403 1920
2019-04-26 11:43:41 GMT 56.663105 25.514153 27,925 100 402 1792
2019-04-26 11:43:31 GMT 56.666656 25.479269 27,600 100 400 1728
2019-04-26 11:43:20 GMT 56.670135 25.444778 27,275 100 397 1856
2019-04-26 11:43:09 GMT 56.673615 25.410175 26,975 100 395 1856
2019-04-26 11:43:00 GMT 56.676544 25.380907 26,700 100 392 2112
2019-04-26 11:42:57 GMT 56.677628 25.370090 26,550 100 392 2176
2019-04-26 11:42:49 GMT 56.680756 25.338678 26,325 100 391 2112
2019-04-26 11:42:39 GMT 56.684464 25.301514 25,825 100 389 1920
2019-04-26 11:42:27 GMT 56.687302 25.272846 25,550 100 386 1920
2019-04-26 11:42:18 GMT 56.690186 25.243921 25,300 100 384 2304
2019-04-26 11:42:08 GMT 56.693363 25.211674 24,850 100 383 2432
2019-04-26 11:41:58 GMT 56.696854 25.179777 24,425 100 380 2368
2019-04-26 11:41:47 GMT 56.699554 25.148945 24,075 100 379 2368
2019-04-26 11:41:37 GMT 56.702637 25.117493 23,650 100 377 2176
2019-04-26 11:41:26 GMT 56.706573 25.077324 23,200 100 373 2176
2019-04-26 11:41:16 GMT 56.709377 25.048298 22,850 100 371 2112
2019-04-26 11:41:06 GMT 56.712479 25.016727 22,500 100 367 2176
2019-04-26 11:40:55 GMT 56.715569 24.984594 22,100 99 365 2112
2019-04-26 11:40:45 GMT 56.718456 24.954824 21,775 100 362 2112
2019-04-26 11:40:36 GMT 56.720993 24.928751 21,450 99 359 2112
2019-04-26 11:40:26 GMT 56.724087 24.896349 20,275 99 354 2176
2019-04-26 11:40:17 GMT 56.726440 24.872103 20,775 99 350 2176
2019-04-26 11:40:13 GMT 56.727859 24.857254 20,600 99 349 2176
2019-04-26 11:40:05 GMT 56.729675 24.838051 20,350 99 346 2112
2019-04-26 11:39:54 GMT 56.732620 24.807472 20,025 99 343 2112
2019-04-26 11:39:50 GMT 56.734085 24.792194 19,800 99 343 2112
2019-04-26 11:39:45 GMT 56.735027 24.782410 19,625 99 340 2176
2019-04-26 11:39:42 GMT 56.736004 24.771778 19,550 99 338 2176
2019-04-26 11:39:34 GMT 56.738052 24.750513 19,250 99 338 2176
2019-04-26 11:39:31 GMT 56.738846 24.742241 19,150 99 337 2176
2019-04-26 11:39:22 GMT 56.741501 24.714260 18,775 99 337 2048
2019-04-26 11:39:13 GMT 56.743591 24.692215 18,525 99 337 2240
2019-04-26 11:39:10 GMT 56.744431 24.683800 18,400 99 337 2624
2019-04-26 11:39:03 GMT 56.746445 24.662504 18,050 99 338 3136
2019-04-26 11:39:00 GMT 56.747131 24.655209 18,050 99 338 3136
2019-04-26 11:38:52 GMT 56.749134 24.634449 17,425 99 335 2944
2019-04-26 11:38:42 GMT 56.751926 24.605299 17,000 99 335 2944
2019-04-26 11:38:32 GMT 56.754627 24.577213 16,500 100 333 3072
2019-04-26 11:38:29 GMT 56.755325 24.570038 16,375 100 332 3072
2019-04-26 11:38:20 GMT 56.757614 24.546976 15,925 100 331 3072
2019-04-26 11:38:17 GMT 56.758575 24.537277 15,750 100 329 2944
2019-04-26 11:38:09 GMT 56.761005 24.513067 15,325 100 326 2560
2019-04-26 11:38:00 GMT 56.763382 24.490242 14,975 101 321 2560
2019-04-26 11:37:56 GMT 56.764481 24.480371 14,825 101 320 3008
2019-04-26 11:37:50 GMT 56.766129 24.465780 14,525 102 316 3392
2019-04-26 11:37:47 GMT 56.767567 24.453529 14,275 102 316 3392
2019-04-26 11:37:40 GMT 56.769382 24.438202 13,925 102 316 3520
2019-04-26 11:37:37 GMT 56.770500 24.429165 13,750 102 315 3392
2019-04-26 11:37:29 GMT 56.772690 24.411354 13,350 102 314 3392
2019-04-26 11:37:25 GMT 56.774094 24.400120 13,100 102 314 3392
2019-04-26 11:37:19 GMT 56.776108 24.384241 12,750 103 314 3136
2019-04-26 11:37:14 GMT 56.777531 24.372904 12,525 103 312 3264
2019-04-26 11:37:08 GMT 56.779633 24.356346 12,175 102 311 3520
2019-04-26 11:37:05 GMT 56.780685 24.347591 11,975 101 310 3584
2019-04-26 11:36:59 GMT 56.782417 24.331083 11,600 99 310 2944
2019-04-26 11:36:56 GMT 56.783295 24.321585 11,400 98 309 2432
2019-04-26 11:36:41 GMT 56.785305 24.286785 11,000 94 295 1664
2019-04-26 11:36:27 GMT 56.787323 24.251976 10,375 107 282 3520
2019-04-26 11:36:20 GMT 56.788937 24.236195 9,975 107 282 3520
2019-04-26 11:36:12 GMT 56.791916 24.218386 9,525 109 281 3520
2019-04-26 11:36:01 GMT 56.797119 24.192839 8,850 110 280 3520
2019-04-26 11:35:52 GMT 56.801010 24.174042 8,350 110 279 3392
2019-04-26 11:35:38 GMT 56.807327 24.143314 7,525 110 277 3456
2019-04-26 11:35:16 GMT 56.817333 24.096029 6,300 111 268 3968
2019-04-26 11:35:13 GMT 56.819229 24.087524 6,025 112 267 3776
2019-04-26 11:34:09 GMT 56.859558 23.973284 2,650 156 216 1280
2019-04-26 11:33:56 GMT 56.870869 23.964991 2,450 162 201 1600
2019-04-26 11:33:47 GMT 56.879745 23.964014 2,175 183 181 704
2019-04-26 11:33:37 GMT 56.886063 23.965044 2,100 186 153 1536
2019-04-26 11:33:27 GMT 56.893166 23.966232 1,800 186 144 2880

Making use of Plane Finder data

You are free to use the raw flight data, aircraft information and images provided in this report for your own purposes provided the data is correctly attributed to Plane Finder. We ask that you please credit Plane Finder and link to planefinder.net in close proximity to the content.

Optionally one of the following logos (no smaller then 150x24px) can be used and must link to planefinder.net

Embedding the Plane Finder map

You are welcome to embed the Plane Finder playback map on your website to offer visitors a more interactive experience. We suggest using the following HTML code:

<iframe src="//planefinder.net/data/report/SU2101-RA-89041-7700-squawk-2019-04-26/map" width="800" height="600" seamless="seamless"></iframe>

Where our data comes from

Plane Finder has a global network of data feeds and antenna radars that receive data broadcast directly from aircraft. The primary technologies used are ADS-B and MLAT. We also show feeds from the FAA and a FLARM glider feed.

Click here to find out more about the Plane Finder network.

How we collect our data